Terminal Aerodrome Forecast
Issued by NWS

Home | Current Version | Previous Version | Text Only | Print | Product List | Glossary On
Versions: 1 2 3 4 5 6 7 8 9 10 11 12 13 14 15 16 17 18 19 20
000
FTUS42 KFFC 290544
TAFRYY
TAF
KRYY 290544Z 2906/3006 24003KT P6SM SKC
     FM291600 30008G13KT P6SM SKC
     FM291800 31010G18KT P6SM FEW060
     FM300000 32010KT P6SM SKC
      AMD NOT SKED TIL 291200=

USA.gov is the U.S. government's official web portal to all federal, state and local government web resources and services.